sensor_id;sensor_type;location;lat;lon;timestamp;P1;durP1;ratioP1;P2;durP2;ratioP2
76155;SDS011;64906;51.290;7.348;2023-02-11T00:00:41;32.00;;;18.50;;
76155;SDS011;64906;51.290;7.348;2023-02-11T00:03:07;28.48;;;17.08;;
76155;SDS011;64906;51.290;7.348;2023-02-11T00:05:34;27.65;;;17.00;;
76155;SDS011;64906;51.290;7.348;2023-02-11T00:07:59;26.13;;;17.67;;
76155;SDS011;64906;51.290;7.348;2023-02-11T00:10:28;29.15;;;16.70;;
76155;SDS011;64906;51.290;7.348;2023-02-11T00:12:54;29.05;;;17.48;;
76155;SDS011;64906;51.290;7.348;2023-02-11T00:15:20;28.30;;;17.45;;
76155;SDS011;64906;51.290;7.348;2023-02-11T00:17:46;30.52;;;17.38;;
76155;SDS011;64906;51.290;7.348;2023-02-11T00:20:12;24.98;;;16.85;;
76155;SDS011;64906;51.290;7.348;2023-02-11T00:22:38;26.30;;;16.67;;
76155;SDS011;64906;51.290;7.348;2023-02-11T00:25:03;28.55;;;17.40;;
76155;SDS011;64906;51.290;7.348;2023-02-11T00:27:30;28.92;;;17.27;;
76155;SDS011;64906;51.290;7.348;2023-02-11T00:29:56;27.27;;;16.65;;
76155;SDS011;64906;51.290;7.348;2023-02-11T00:32:22;30.13;;;16.65;;
76155;SDS011;64906;51.290;7.348;2023-02-11T00:34:50;25.33;;;15.55;;
76155;SDS011;64906;51.290;7.348;2023-02-11T00:37:17;30.52;;;15.55;;
76155;SDS011;64906;51.290;7.348;2023-02-11T00:39:43;26.02;;;15.65;;
76155;SDS011;64906;51.290;7.348;2023-02-11T00:42:10;31.35;;;15.80;;
76155;SDS011;64906;51.290;7.348;2023-02-11T00:44:39;26.65;;;15.77;;
76155;SDS011;64906;51.290;7.348;2023-02-11T00:47:05;27.73;;;16.50;;
76155;SDS011;64906;51.290;7.348;2023-02-11T00:49:31;26.65;;;15.40;;
76155;SDS011;64906;51.290;7.348;2023-02-11T00:51:57;28.40;;;16.25;;
76155;SDS011;64906;51.290;7.348;2023-02-11T00:54:23;25.88;;;15.85;;
76155;SDS011;64906;51.290;7.348;2023-02-11T00:56:49;29.15;;;15.75;;
76155;SDS011;64906;51.290;7.348;2023-02-11T00:59:15;29.75;;;15.07;;
76155;SDS011;64906;51.290;7.348;2023-02-11T01:01:41;29.70;;;16.52;;
76155;SDS011;64906;51.290;7.348;2023-02-11T01:04:07;25.77;;;15.07;;
76155;SDS011;64906;51.290;7.348;2023-02-11T01:06:33;25.60;;;15.07;;
76155;SDS011;64906;51.290;7.348;2023-02-11T01:08:58;26.58;;;14.77;;
76155;SDS011;64906;51.290;7.348;2023-02-11T01:11:24;29.80;;;15.82;;
76155;SDS011;64906;51.290;7.348;2023-02-11T01:13:50;26.10;;;14.52;;
76155;SDS011;64906;51.290;7.348;2023-02-11T01:16:17;26.83;;;14.82;;
76155;SDS011;64906;51.290;7.348;2023-02-11T01:18:44;25.15;;;14.60;;
76155;SDS011;64906;51.290;7.348;2023-02-11T01:21:10;26.98;;;14.68;;
76155;SDS011;64906;51.290;7.348;2023-02-11T01:23:36;29.05;;;14.25;;
76155;SDS011;64906;51.290;7.348;2023-02-11T01:26:02;24.75;;;13.98;;
76155;SDS011;64906;51.290;7.348;2023-02-11T01:28:29;27.27;;;14.52;;
76155;SDS011;64906;51.290;7.348;2023-02-11T01:30:55;23.35;;;13.85;;
76155;SDS011;64906;51.290;7.348;2023-02-11T01:33:22;27.17;;;13.85;;
76155;SDS011;64906;51.290;7.348;2023-02-11T01:35:48;26.25;;;13.35;;
76155;SDS011;64906;51.290;7.348;2023-02-11T01:38:15;24.52;;;12.80;;
76155;SDS011;64906;51.290;7.348;2023-02-11T01:40:51;25.95;;;12.90;;
76155;SDS011;64906;51.290;7.348;2023-02-11T01:43:20;30.20;;;14.30;;
76155;SDS011;64906;51.290;7.348;2023-02-11T01:48:14;25.80;;;14.05;;
76155;SDS011;64906;51.290;7.348;2023-02-11T01:50:45;27.35;;;13.48;;
76155;SDS011;64906;51.290;7.348;2023-02-11T01:53:15;30.33;;;13.27;;
76155;SDS011;64906;51.290;7.348;2023-02-11T01:56:00;22.92;;;12.30;;
76155;SDS011;64906;51.290;7.348;2023-02-11T01:58:46;24.02;;;12.18;;
76155;SDS011;64906;51.290;7.348;2023-02-11T02:01:16;25.35;;;12.23;;
76155;SDS011;64906;51.290;7.348;2023-02-11T02:03:49;23.88;;;12.70;;
76155;SDS011;64906;51.290;7.348;2023-02-11T02:06:21;26.52;;;12.20;;
76155;SDS011;64906;51.290;7.348;2023-02-11T02:09:00;23.98;;;11.98;;
76155;SDS011;64906;51.290;7.348;2023-02-11T02:11:30;25.02;;;11.73;;
76155;SDS011;64906;51.290;7.348;2023-02-11T02:13:56;28.80;;;11.18;;
76155;SDS011;64906;51.290;7.348;2023-02-11T02:16:22;27.83;;;12.43;;
76155;SDS011;64906;51.290;7.348;2023-02-11T02:22:09;23.70;;;11.38;;
76155;SDS011;64906;51.290;7.348;2023-02-11T02:25:23;24.02;;;11.63;;
76155;SDS011;64906;51.290;7.348;2023-02-11T02:28:35;27.05;;;11.68;;
76155;SDS011;64906;51.290;7.348;2023-02-11T02:33:50;21.85;;;11.35;;
76155;SDS011;64906;51.290;7.348;2023-02-11T02:36:27;25.10;;;11.10;;
76155;SDS011;64906;51.290;7.348;2023-02-11T02:39:07;24.20;;;10.75;;
76155;SDS011;64906;51.290;7.348;2023-02-11T02:41:37;22.58;;;10.07;;
76155;SDS011;64906;51.290;7.348;2023-02-11T02:44:05;21.15;;;10.13;;
76155;SDS011;64906;51.290;7.348;2023-02-11T02:46:33;23.67;;;10.90;;
76155;SDS011;64906;51.290;7.348;2023-02-11T02:48:59;21.08;;;10.57;;
76155;SDS011;64906;51.290;7.348;2023-02-11T02:51:32;24.77;;;10.25;;
76155;SDS011;64906;51.290;7.348;2023-02-11T02:59:51;19.48;;;9.43;;
76155;SDS011;64906;51.290;7.348;2023-02-11T03:05:01;22.92;;;8.80;;
76155;SDS011;64906;51.290;7.348;2023-02-11T03:12:49;29.30;;;9.45;;
76155;SDS011;64906;51.290;7.348;2023-02-11T03:15:18;22.65;;;9.88;;
76155;SDS011;64906;51.290;7.348;2023-02-11T03:17:47;23.23;;;9.50;;
76155;SDS011;64906;51.290;7.348;2023-02-11T03:20:16;18.20;;;8.65;;
76155;SDS011;64906;51.290;7.348;2023-02-11T03:22:47;24.90;;;9.77;;
76155;SDS011;64906;51.290;7.348;2023-02-11T03:25:18;23.42;;;9.35;;
76155;SDS011;64906;51.290;7.348;2023-02-11T03:27:46;19.77;;;8.45;;
76155;SDS011;64906;51.290;7.348;2023-02-11T03:33:00;27.52;;;8.77;;
76155;SDS011;64906;51.290;7.348;2023-02-11T03:35:33;19.00;;;8.30;;
76155;SDS011;64906;51.290;7.348;2023-02-11T03:38:08;22.98;;;7.95;;
76155;SDS011;64906;51.290;7.348;2023-02-11T03:40:42;18.60;;;8.95;;
76155;SDS011;64906;51.290;7.348;2023-02-11T03:43:25;16.27;;;7.80;;
76155;SDS011;64906;51.290;7.348;2023-02-11T03:45:56;22.50;;;7.80;;
76155;SDS011;64906;51.290;7.348;2023-02-11T03:48:33;18.42;;;8.10;;
76155;SDS011;64906;51.290;7.348;2023-02-11T03:51:05;22.42;;;7.55;;
76155;SDS011;64906;51.290;7.348;2023-02-11T03:53:33;18.10;;;7.75;;
76155;SDS011;64906;51.290;7.348;2023-02-11T03:56:02;18.77;;;7.18;;
76155;SDS011;64906;51.290;7.348;2023-02-11T03:58:31;26.70;;;8.73;;
76155;SDS011;64906;51.290;7.348;2023-02-11T04:00:56;25.38;;;8.35;;
76155;SDS011;64906;51.290;7.348;2023-02-11T04:03:22;23.92;;;8.07;;
76155;SDS011;64906;51.290;7.348;2023-02-11T04:05:48;19.50;;;7.38;;
76155;SDS011;64906;51.290;7.348;2023-02-11T04:08:14;15.95;;;7.05;;
76155;SDS011;64906;51.290;7.348;2023-02-11T04:10:40;24.20;;;6.35;;
76155;SDS011;64906;51.290;7.348;2023-02-11T04:13:06;15.55;;;6.60;;
76155;SDS011;64906;51.290;7.348;2023-02-11T04:15:34;18.92;;;7.10;;
76155;SDS011;64906;51.290;7.348;2023-02-11T04:18:00;16.95;;;6.90;;
76155;SDS011;64906;51.290;7.348;2023-02-11T04:20:28;18.38;;;6.55;;
76155;SDS011;64906;51.290;7.348;2023-02-11T04:22:55;19.23;;;6.78;;
76155;SDS011;64906;51.290;7.348;2023-02-11T04:25:21;24.55;;;6.57;;
76155;SDS011;64906;51.290;7.348;2023-02-11T04:27:46;16.52;;;6.30;;
76155;SDS011;64906;51.290;7.348;2023-02-11T04:30:12;17.92;;;6.38;;
76155;SDS011;64906;51.290;7.348;2023-02-11T04:32:38;19.33;;;6.07;;
76155;SDS011;64906;51.290;7.348;2023-02-11T04:35:05;17.10;;;6.32;;
76155;SDS011;64906;51.290;7.348;2023-02-11T04:37:31;20.15;;;6.22;;
76155;SDS011;64906;51.290;7.348;2023-02-11T04:39:56;21.60;;;6.47;;
76155;SDS011;64906;51.290;7.348;2023-02-11T04:42:23;20.25;;;5.60;;
76155;SDS011;64906;51.290;7.348;2023-02-11T04:44:49;20.45;;;7.00;;
76155;SDS011;64906;51.290;7.348;2023-02-11T04:47:14;17.15;;;6.20;;
76155;SDS011;64906;51.290;7.348;2023-02-11T04:49:40;16.45;;;5.65;;
76155;SDS011;64906;51.290;7.348;2023-02-11T04:52:07;22.33;;;6.63;;
76155;SDS011;64906;51.290;7.348;2023-02-11T04:54:33;18.50;;;6.03;;
76155;SDS011;64906;51.290;7.348;2023-02-11T04:57:02;22.27;;;5.70;;
76155;SDS011;64906;51.290;7.348;2023-02-11T04:59:28;18.20;;;5.80;;
76155;SDS011;64906;51.290;7.348;2023-02-11T05:01:57;22.60;;;6.95;;
76155;SDS011;64906;51.290;7.348;2023-02-11T05:04:23;17.38;;;5.28;;
76155;SDS011;64906;51.290;7.348;2023-02-11T05:06:49;20.00;;;5.53;;
76155;SDS011;64906;51.290;7.348;2023-02-11T05:09:15;22.38;;;5.88;;
76155;SDS011;64906;51.290;7.348;2023-02-11T05:11:41;23.73;;;6.15;;
76155;SDS011;64906;51.290;7.348;2023-02-11T05:14:07;23.52;;;5.53;;
76155;SDS011;64906;51.290;7.348;2023-02-11T05:16:33;16.80;;;4.95;;
76155;SDS011;64906;51.290;7.348;2023-02-11T05:18:59;19.00;;;5.57;;
76155;SDS011;64906;51.290;7.348;2023-02-11T05:21:25;17.35;;;5.68;;
76155;SDS011;64906;51.290;7.348;2023-02-11T05:23:51;15.57;;;5.07;;
76155;SDS011;64906;51.290;7.348;2023-02-11T05:26:17;20.65;;;5.15;;
76155;SDS011;64906;51.290;7.348;2023-02-11T05:28:45;18.33;;;4.65;;
76155;SDS011;64906;51.290;7.348;2023-02-11T05:31:11;17.13;;;5.38;;
76155;SDS011;64906;51.290;7.348;2023-02-11T05:33:38;18.17;;;5.30;;
76155;SDS011;64906;51.290;7.348;2023-02-11T05:36:06;19.30;;;4.68;;
76155;SDS011;64906;51.290;7.348;2023-02-11T05:38:35;18.67;;;4.85;;
76155;SDS011;64906;51.290;7.348;2023-02-11T05:41:02;18.02;;;5.13;;
76155;SDS011;64906;51.290;7.348;2023-02-11T05:43:28;19.92;;;4.55;;
76155;SDS011;64906;51.290;7.348;2023-02-11T05:45:54;22.40;;;4.38;;
76155;SDS011;64906;51.290;7.348;2023-02-11T05:48:21;16.77;;;4.72;;
76155;SDS011;64906;51.290;7.348;2023-02-11T05:50:47;18.58;;;5.47;;
76155;SDS011;64906;51.290;7.348;2023-02-11T05:53:13;14.82;;;4.35;;
76155;SDS011;64906;51.290;7.348;2023-02-11T05:55:39;20.92;;;5.13;;
76155;SDS011;64906;51.290;7.348;2023-02-11T05:58:06;24.17;;;5.55;;
76155;SDS011;64906;51.290;7.348;2023-02-11T06:00:32;16.58;;;4.90;;
76155;SDS011;64906;51.290;7.348;2023-02-11T06:02:59;19.27;;;4.03;;
76155;SDS011;64906;51.290;7.348;2023-02-11T06:05:25;20.52;;;4.75;;
76155;SDS011;64906;51.290;7.348;2023-02-11T06:07:51;19.77;;;4.63;;
76155;SDS011;64906;51.290;7.348;2023-02-11T06:10:17;20.25;;;4.80;;
76155;SDS011;64906;51.290;7.348;2023-02-11T06:12:43;18.88;;;4.45;;
76155;SDS011;64906;51.290;7.348;2023-02-11T06:15:09;26.05;;;5.63;;
76155;SDS011;64906;51.290;7.348;2023-02-11T06:17:35;21.38;;;5.38;;
76155;SDS011;64906;51.290;7.348;2023-02-11T06:20:04;23.33;;;4.22;;
76155;SDS011;64906;51.290;7.348;2023-02-11T06:22:32;21.05;;;4.55;;
76155;SDS011;64906;51.290;7.348;2023-02-11T06:25:07;22.08;;;5.43;;
76155;SDS011;64906;51.290;7.348;2023-02-11T06:27:35;21.92;;;4.03;;
76155;SDS011;64906;51.290;7.348;2023-02-11T06:30:01;20.17;;;4.50;;
76155;SDS011;64906;51.290;7.348;2023-02-11T06:32:27;19.83;;;3.30;;
76155;SDS011;64906;51.290;7.348;2023-02-11T06:34:53;18.48;;;3.88;;
76155;SDS011;64906;51.290;7.348;2023-02-11T06:37:19;18.73;;;3.95;;
76155;SDS011;64906;51.290;7.348;2023-02-11T06:39:45;23.90;;;4.22;;
76155;SDS011;64906;51.290;7.348;2023-02-11T06:42:12;19.90;;;4.70;;
76155;SDS011;64906;51.290;7.348;2023-02-11T06:44:38;23.42;;;4.05;;
76155;SDS011;64906;51.290;7.348;2023-02-11T06:47:04;20.98;;;4.35;;
76155;SDS011;64906;51.290;7.348;2023-02-11T06:49:30;18.00;;;4.25;;
76155;SDS011;64906;51.290;7.348;2023-02-11T06:51:56;24.75;;;4.25;;
76155;SDS011;64906;51.290;7.348;2023-02-11T06:54:21;24.02;;;4.45;;
76155;SDS011;64906;51.290;7.348;2023-02-11T06:56:47;24.05;;;3.88;;
76155;SDS011;64906;51.290;7.348;2023-02-11T06:59:17;20.73;;;5.20;;
76155;SDS011;64906;51.290;7.348;2023-02-11T07:01:46;18.50;;;4.05;;
76155;SDS011;64906;51.290;7.348;2023-02-11T07:04:12;20.27;;;3.75;;
76155;SDS011;64906;51.290;7.348;2023-02-11T07:06:41;18.55;;;3.55;;
76155;SDS011;64906;51.290;7.348;2023-02-11T07:09:07;17.27;;;4.03;;
76155;SDS011;64906;51.290;7.348;2023-02-11T07:11:33;26.25;;;3.95;;
76155;SDS011;64906;51.290;7.348;2023-02-11T07:14:00;23.98;;;4.28;;
76155;SDS011;64906;51.290;7.348;2023-02-11T07:16:31;19.02;;;3.65;;
76155;SDS011;64906;51.290;7.348;2023-02-11T07:18:57;15.32;;;3.70;;
76155;SDS011;64906;51.290;7.348;2023-02-11T07:21:23;17.95;;;3.55;;
76155;SDS011;64906;51.290;7.348;2023-02-11T07:23:48;30.58;;;4.32;;
76155;SDS011;64906;51.290;7.348;2023-02-11T07:26:16;25.52;;;3.28;;
76155;SDS011;64906;51.290;7.348;2023-02-11T07:28:43;22.08;;;4.15;;
76155;SDS011;64906;51.290;7.348;2023-02-11T07:31:13;28.15;;;4.38;;
76155;SDS011;64906;51.290;7.348;2023-02-11T07:33:42;20.05;;;3.28;;
76155;SDS011;64906;51.290;7.348;2023-02-11T07:36:12;21.70;;;3.70;;
76155;SDS011;64906;51.290;7.348;2023-02-11T07:38:40;20.17;;;3.58;;
76155;SDS011;64906;51.290;7.348;2023-02-11T07:41:07;16.38;;;3.85;;
76155;SDS011;64906;51.290;7.348;2023-02-11T07:43:36;24.92;;;7.80;;
76155;SDS011;64906;51.290;7.348;2023-02-11T07:46:03;51.03;;;24.10;;
76155;SDS011;64906;51.290;7.348;2023-02-11T07:48:30;49.67;;;21.23;;
76155;SDS011;64906;51.290;7.348;2023-02-11T07:51:10;40.65;;;18.30;;
76155;SDS011;64906;51.290;7.348;2023-02-11T07:53:39;37.15;;;13.90;;
76155;SDS011;64906;51.290;7.348;2023-02-11T07:56:05;39.13;;;16.55;;
76155;SDS011;64906;51.290;7.348;2023-02-11T07:58:32;44.90;;;22.00;;
76155;SDS011;64906;51.290;7.348;2023-02-11T08:01:00;42.30;;;19.83;;
76155;SDS011;64906;51.290;7.348;2023-02-11T08:03:30;46.45;;;19.80;;
76155;SDS011;64906;51.290;7.348;2023-02-11T08:05:57;54.75;;;21.65;;
76155;SDS011;64906;51.290;7.348;2023-02-11T08:08:25;50.42;;;22.58;;
76155;SDS011;64906;51.290;7.348;2023-02-11T08:10:52;54.33;;;22.65;;
76155;SDS011;64906;51.290;7.348;2023-02-11T08:13:19;62.50;;;26.08;;
76155;SDS011;64906;51.290;7.348;2023-02-11T08:15:45;60.67;;;27.77;;
76155;SDS011;64906;51.290;7.348;2023-02-11T08:18:11;62.60;;;27.60;;
76155;SDS011;64906;51.290;7.348;2023-02-11T08:20:36;59.47;;;28.55;;
76155;SDS011;64906;51.290;7.348;2023-02-11T08:23:04;57.03;;;28.05;;
76155;SDS011;64906;51.290;7.348;2023-02-11T08:25:32;60.33;;;29.15;;
76155;SDS011;64906;51.290;7.348;2023-02-11T08:27:58;64.18;;;30.05;;
76155;SDS011;64906;51.290;7.348;2023-02-11T08:30:24;68.15;;;32.50;;
76155;SDS011;64906;51.290;7.348;2023-02-11T08:32:51;68.88;;;31.70;;
76155;SDS011;64906;51.290;7.348;2023-02-11T08:35:17;60.65;;;30.48;;
76155;SDS011;64906;51.290;7.348;2023-02-11T08:37:43;66.22;;;30.85;;
76155;SDS011;64906;51.290;7.348;2023-02-11T08:42:39;74.95;;;30.52;;
76155;SDS011;64906;51.290;7.348;2023-02-11T08:45:05;64.28;;;31.08;;
76155;SDS011;64906;51.290;7.348;2023-02-11T08:47:32;65.45;;;31.13;;
76155;SDS011;64906;51.290;7.348;2023-02-11T08:49:58;67.00;;;31.42;;
76155;SDS011;64906;51.290;7.348;2023-02-11T08:52:24;58.90;;;31.38;;
76155;SDS011;64906;51.290;7.348;2023-02-11T08:54:49;68.45;;;34.42;;
76155;SDS011;64906;51.290;7.348;2023-02-11T08:57:15;69.68;;;32.60;;
76155;SDS011;64906;51.290;7.348;2023-02-11T08:59:41;64.40;;;33.42;;
76155;SDS011;64906;51.290;7.348;2023-02-11T09:02:10;67.10;;;31.17;;
76155;SDS011;64906;51.290;7.348;2023-02-11T09:04:37;65.15;;;30.05;;
76155;SDS011;64906;51.290;7.348;2023-02-11T09:07:03;61.20;;;29.75;;
76155;SDS011;64906;51.290;7.348;2023-02-11T09:09:29;61.10;;;29.60;;
76155;SDS011;64906;51.290;7.348;2023-02-11T09:11:55;72.25;;;31.35;;
76155;SDS011;64906;51.290;7.348;2023-02-11T09:14:23;69.00;;;30.48;;
76155;SDS011;64906;51.290;7.348;2023-02-11T09:16:49;65.35;;;29.45;;
76155;SDS011;64906;51.290;7.348;2023-02-11T09:19:16;67.00;;;29.50;;
76155;SDS011;64906;51.290;7.348;2023-02-11T09:21:42;64.95;;;29.70;;
76155;SDS011;64906;51.290;7.348;2023-02-11T09:24:08;65.03;;;30.63;;
76155;SDS011;64906;51.290;7.348;2023-02-11T09:26:41;65.60;;;29.45;;
76155;SDS011;64906;51.290;7.348;2023-02-11T09:29:07;70.00;;;30.15;;
76155;SDS011;64906;51.290;7.348;2023-02-11T09:31:33;64.95;;;30.15;;
76155;SDS011;64906;51.290;7.348;2023-02-11T09:34:00;72.18;;;29.17;;
76155;SDS011;64906;51.290;7.348;2023-02-11T09:39:11;60.13;;;28.13;;
76155;SDS011;64906;51.290;7.348;2023-02-11T09:44:17;66.05;;;29.38;;
76155;SDS011;64906;51.290;7.348;2023-02-11T09:46:49;65.13;;;28.38;;
76155;SDS011;64906;51.290;7.348;2023-02-11T09:49:21;57.80;;;26.27;;
76155;SDS011;64906;51.290;7.348;2023-02-11T09:51:57;61.28;;;27.75;;
76155;SDS011;64906;51.290;7.348;2023-02-11T09:54:36;63.17;;;27.20;;
76155;SDS011;64906;51.290;7.348;2023-02-11T09:57:14;67.65;;;28.98;;
76155;SDS011;64906;51.290;7.348;2023-02-11T09:59:42;58.17;;;27.70;;
76155;SDS011;64906;51.290;7.348;2023-02-11T10:02:12;59.22;;;26.83;;
76155;SDS011;64906;51.290;7.348;2023-02-11T10:08:03;63.28;;;25.55;;
76155;SDS011;64906;51.290;7.348;2023-02-11T10:18:42;58.75;;;24.60;;
76155;SDS011;64906;51.290;7.348;2023-02-11T10:23:53;51.95;;;24.92;;
76155;SDS011;64906;51.290;7.348;2023-02-11T10:26:21;51.92;;;24.00;;
76155;SDS011;64906;51.290;7.348;2023-02-11T10:28:51;54.30;;;23.70;;
76155;SDS011;64906;51.290;7.348;2023-02-11T10:31:23;56.15;;;23.20;;
76155;SDS011;64906;51.290;7.348;2023-02-11T10:33:56;48.22;;;20.48;;
76155;SDS011;64906;51.290;7.348;2023-02-11T10:36:53;47.45;;;19.98;;
76155;SDS011;64906;51.290;7.348;2023-02-11T10:39:20;46.50;;;20.40;;
76155;SDS011;64906;51.290;7.348;2023-02-11T10:44:29;42.17;;;18.08;;
76155;SDS011;64906;51.290;7.348;2023-02-11T10:46:58;49.70;;;17.88;;
76155;SDS011;64906;51.290;7.348;2023-02-11T10:49:39;49.70;;;17.85;;
76155;SDS011;64906;51.290;7.348;2023-02-11T10:54:59;42.65;;;16.40;;
76155;SDS011;64906;51.290;7.348;2023-02-11T10:57:30;40.30;;;16.75;;
76155;SDS011;64906;51.290;7.348;2023-02-11T11:00:45;39.65;;;17.45;;
76155;SDS011;64906;51.290;7.348;2023-02-11T11:03:04;39.00;;;14.93;;
76155;SDS011;64906;51.290;7.348;2023-02-11T11:05:50;41.00;;;15.88;;
76155;SDS011;64906;51.290;7.348;2023-02-11T11:08:19;39.30;;;13.43;;
76155;SDS011;64906;51.290;7.348;2023-02-11T11:10:47;36.50;;;15.27;;
76155;SDS011;64906;51.290;7.348;2023-02-11T11:13:34;33.22;;;13.18;;
76155;SDS011;64906;51.290;7.348;2023-02-11T11:18:43;43.95;;;13.45;;
76155;SDS011;64906;51.290;7.348;2023-02-11T11:23:48;37.92;;;11.85;;
76155;SDS011;64906;51.290;7.348;2023-02-11T11:26:18;42.15;;;12.43;;
76155;SDS011;64906;51.290;7.348;2023-02-11T11:31:21;39.40;;;13.45;;
76155;SDS011;64906;51.290;7.348;2023-02-11T11:33:56;36.58;;;12.63;;
76155;SDS011;64906;51.290;7.348;2023-02-11T11:36:34;35.10;;;11.38;;
76155;SDS011;64906;51.290;7.348;2023-02-11T11:39:14;39.72;;;12.48;;
76155;SDS011;64906;51.290;7.348;2023-02-11T11:41:53;43.30;;;11.38;;
76155;SDS011;64906;51.290;7.348;2023-02-11T11:49:38;30.38;;;10.43;;
76155;SDS011;64906;51.290;7.348;2023-02-11T11:52:32;34.25;;;10.68;;
76155;SDS011;64906;51.290;7.348;2023-02-11T12:00:40;37.65;;;9.07;;
76155;SDS011;64906;51.290;7.348;2023-02-11T12:03:13;48.78;;;9.60;;
76155;SDS011;64906;51.290;7.348;2023-02-11T12:05:59;55.40;;;10.73;;
76155;SDS011;64906;51.290;7.348;2023-02-11T12:11:15;77.53;;;12.75;;
76155;SDS011;64906;51.290;7.348;2023-02-11T12:14:06;83.78;;;12.90;;
76155;SDS011;64906;51.290;7.348;2023-02-11T12:16:35;80.68;;;10.98;;
76155;SDS011;64906;51.290;7.348;2023-02-11T12:27:35;80.28;;;10.65;;
76155;SDS011;64906;51.290;7.348;2023-02-11T12:43:38;58.78;;;9.15;;
76155;SDS011;64906;51.290;7.348;2023-02-11T12:51:38;64.35;;;9.32;;
76155;SDS011;64906;51.290;7.348;2023-02-11T12:54:37;61.63;;;9.15;;
76155;SDS011;64906;51.290;7.348;2023-02-11T12:57:42;60.42;;;8.68;;
76155;SDS011;64906;51.290;7.348;2023-02-11T13:03:27;52.10;;;9.15;;
76155;SDS011;64906;51.290;7.348;2023-02-11T13:06:01;66.97;;;9.95;;
76155;SDS011;64906;51.290;7.348;2023-02-11T13:08:32;61.15;;;9.35;;
76155;SDS011;64906;51.290;7.348;2023-02-11T13:11:12;65.68;;;9.38;;
76155;SDS011;64906;51.290;7.348;2023-02-11T13:16:16;70.18;;;9.27;;
76155;SDS011;64906;51.290;7.348;2023-02-11T13:24:27;63.95;;;9.32;;
76155;SDS011;64906;51.290;7.348;2023-02-11T13:38:16;68.40;;;9.23;;
76155;SDS011;64906;51.290;7.348;2023-02-11T13:41:09;57.42;;;10.35;;
76155;SDS011;64906;51.290;7.348;2023-02-11T13:46:48;79.70;;;9.77;;
76155;SDS011;64906;51.290;7.348;2023-02-11T13:49:21;82.35;;;10.02;;
76155;SDS011;64906;51.290;7.348;2023-02-11T13:51:50;68.03;;;8.82;;
76155;SDS011;64906;51.290;7.348;2023-02-11T13:54:19;72.68;;;9.55;;
76155;SDS011;64906;51.290;7.348;2023-02-11T14:10:59;66.55;;;10.82;;
76155;SDS011;64906;51.290;7.348;2023-02-11T14:23:40;79.38;;;9.25;;
76155;SDS011;64906;51.290;7.348;2023-02-11T14:28:47;90.50;;;10.52;;
76155;SDS011;64906;51.290;7.348;2023-02-11T14:31:19;88.18;;;10.98;;
76155;SDS011;64906;51.290;7.348;2023-02-11T14:34:06;111.75;;;12.10;;
76155;SDS011;64906;51.290;7.348;2023-02-11T14:42:42;101.35;;;11.40;;
76155;SDS011;64906;51.290;7.348;2023-02-11T14:45:09;87.95;;;9.85;;
76155;SDS011;64906;51.290;7.348;2023-02-11T14:47:42;98.65;;;10.15;;
76155;SDS011;64906;51.290;7.348;2023-02-11T14:50:21;97.45;;;11.40;;
76155;SDS011;64906;51.290;7.348;2023-02-11T14:52:51;84.88;;;9.85;;
76155;SDS011;64906;51.290;7.348;2023-02-11T14:58:07;125.90;;;11.70;;
76155;SDS011;64906;51.290;7.348;2023-02-11T15:03:41;107.03;;;10.80;;
76155;SDS011;64906;51.290;7.348;2023-02-11T15:08:52;104.95;;;11.43;;
76155;SDS011;64906;51.290;7.348;2023-02-11T15:11:22;104.40;;;10.90;;
76155;SDS011;64906;51.290;7.348;2023-02-11T15:13:51;110.10;;;12.30;;
76155;SDS011;64906;51.290;7.348;2023-02-11T15:16:24;103.45;;;11.60;;
76155;SDS011;64906;51.290;7.348;2023-02-11T15:18:57;96.78;;;11.45;;
76155;SDS011;64906;51.290;7.348;2023-02-11T15:21:29;89.38;;;10.60;;
76155;SDS011;64906;51.290;7.348;2023-02-11T15:24:02;95.28;;;11.80;;
76155;SDS011;64906;51.290;7.348;2023-02-11T15:26:32;107.63;;;12.32;;
76155;SDS011;64906;51.290;7.348;2023-02-11T15:28:58;104.30;;;10.85;;
76155;SDS011;64906;51.290;7.348;2023-02-11T15:31:25;108.88;;;12.38;;
76155;SDS011;64906;51.290;7.348;2023-02-11T15:33:52;118.05;;;12.80;;
76155;SDS011;64906;51.290;7.348;2023-02-11T15:36:20;108.57;;;12.18;;
76155;SDS011;64906;51.290;7.348;2023-02-11T15:39:27;108.70;;;10.88;;
76155;SDS011;64906;51.290;7.348;2023-02-11T15:47:40;106.53;;;10.77;;
76155;SDS011;64906;51.290;7.348;2023-02-11T15:56:07;112.13;;;12.05;;
76155;SDS011;64906;51.290;7.348;2023-02-11T15:58:37;111.63;;;11.23;;
76155;SDS011;64906;51.290;7.348;2023-02-11T16:01:05;119.90;;;10.65;;
76155;SDS011;64906;51.290;7.348;2023-02-11T16:03:32;123.72;;;12.25;;
76155;SDS011;64906;51.290;7.348;2023-02-11T16:17:12;115.18;;;11.55;;
76155;SDS011;64906;51.290;7.348;2023-02-11T16:19:45;102.97;;;10.90;;
76155;SDS011;64906;51.290;7.348;2023-02-11T16:22:15;126.18;;;11.85;;
76155;SDS011;64906;51.290;7.348;2023-02-11T16:24:52;125.85;;;13.10;;
76155;SDS011;64906;51.290;7.348;2023-02-11T16:27:26;96.30;;;12.32;;
76155;SDS011;64906;51.290;7.348;2023-02-11T16:29:57;111.45;;;12.82;;
76155;SDS011;64906;51.290;7.348;2023-02-11T16:32:24;128.98;;;13.40;;
76155;SDS011;64906;51.290;7.348;2023-02-11T16:34:52;116.47;;;11.73;;
76155;SDS011;64906;51.290;7.348;2023-02-11T16:37:19;114.90;;;12.85;;
76155;SDS011;64906;51.290;7.348;2023-02-11T16:39:45;126.80;;;11.30;;
76155;SDS011;64906;51.290;7.348;2023-02-11T16:42:11;114.38;;;13.10;;
76155;SDS011;64906;51.290;7.348;2023-02-11T16:44:37;131.00;;;13.32;;
76155;SDS011;64906;51.290;7.348;2023-02-11T16:47:03;158.35;;;14.55;;
76155;SDS011;64906;51.290;7.348;2023-02-11T16:49:33;150.23;;;15.65;;
76155;SDS011;64906;51.290;7.348;2023-02-11T16:52:04;138.45;;;14.82;;
76155;SDS011;64906;51.290;7.348;2023-02-11T16:54:32;135.85;;;13.48;;
76155;SDS011;64906;51.290;7.348;2023-02-11T16:56:58;201.55;;;16.52;;
76155;SDS011;64906;51.290;7.348;2023-02-11T16:59:26;184.30;;;16.65;;
76155;SDS011;64906;51.290;7.348;2023-02-11T17:01:52;161.05;;;14.50;;
76155;SDS011;64906;51.290;7.348;2023-02-11T17:04:22;180.90;;;15.68;;
76155;SDS011;64906;51.290;7.348;2023-02-11T17:06:51;164.25;;;17.08;;
76155;SDS011;64906;51.290;7.348;2023-02-11T17:09:20;178.25;;;15.82;;
76155;SDS011;64906;51.290;7.348;2023-02-11T17:11:50;204.88;;;17.35;;
76155;SDS011;64906;51.290;7.348;2023-02-11T17:14:17;192.27;;;17.25;;
76155;SDS011;64906;51.290;7.348;2023-02-11T17:16:43;221.10;;;18.63;;
76155;SDS011;64906;51.290;7.348;2023-02-11T17:19:14;224.77;;;18.17;;
76155;SDS011;64906;51.290;7.348;2023-02-11T17:21:44;220.13;;;19.88;;
76155;SDS011;64906;51.290;7.348;2023-02-11T17:24:11;238.93;;;18.20;;
76155;SDS011;64906;51.290;7.348;2023-02-11T17:26:38;216.63;;;18.65;;
76155;SDS011;64906;51.290;7.348;2023-02-11T17:29:07;217.95;;;18.25;;
76155;SDS011;64906;51.290;7.348;2023-02-11T17:31:35;217.60;;;19.98;;
76155;SDS011;64906;51.290;7.348;2023-02-11T17:34:02;237.30;;;19.15;;
76155;SDS011;64906;51.290;7.348;2023-02-11T17:36:29;235.05;;;19.83;;
76155;SDS011;64906;51.290;7.348;2023-02-11T17:38:58;241.13;;;20.58;;
76155;SDS011;64906;51.290;7.348;2023-02-11T17:41:25;194.18;;;16.52;;
76155;SDS011;64906;51.290;7.348;2023-02-11T17:43:52;199.20;;;19.33;;
76155;SDS011;64906;51.290;7.348;2023-02-11T17:46:21;213.05;;;19.80;;
76155;SDS011;64906;51.290;7.348;2023-02-11T17:48:47;207.90;;;18.20;;